sensor_id;sensor_type;location;lat;lon;timestamp;temperature;humidity
18103;DHT22;9178;51.120;6.192;2023-02-15T00:01:59;2.60;99.90
18103;DHT22;9178;51.120;6.192;2023-02-15T00:04:26;2.60;99.90
18103;DHT22;9178;51.120;6.192;2023-02-15T00:07:14;2.50;99.90
18103;DHT22;9178;51.120;6.192;2023-02-15T00:09:41;2.50;99.90
18103;DHT22;9178;51.120;6.192;2023-02-15T00:12:09;2.50;99.90
18103;DHT22;9178;51.120;6.192;2023-02-15T00:14:35;2.50;99.90
18103;DHT22;9178;51.120;6.192;2023-02-15T00:17:02;2.40;99.90
18103;DHT22;9178;51.120;6.192;2023-02-15T00:19:30;2.40;99.90
18103;DHT22;9178;51.120;6.192;2023-02-15T00:21:57;2.40;99.90
18103;DHT22;9178;51.120;6.192;2023-02-15T00:24:25;2.40;99.90
18103;DHT22;9178;51.120;6.192;2023-02-15T00:26:52;2.40;99.90
18103;DHT22;9178;51.120;6.192;2023-02-15T00:29:20;2.40;99.90
18103;DHT22;9178;51.120;6.192;2023-02-15T00:31:47;2.30;99.90
18103;DHT22;9178;51.120;6.192;2023-02-15T00:34:17;2.30;99.90
18103;DHT22;9178;51.120;6.192;2023-02-15T00:36:45;2.30;99.90
18103;DHT22;9178;51.120;6.192;2023-02-15T00:39:12;2.30;99.90
18103;DHT22;9178;51.120;6.192;2023-02-15T00:41:41;2.30;99.90
18103;DHT22;9178;51.120;6.192;2023-02-15T00:44:08;2.20;99.90
18103;DHT22;9178;51.120;6.192;2023-02-15T00:46:35;2.20;99.90
18103;DHT22;9178;51.120;6.192;2023-02-15T00:49:03;2.20;99.90
18103;DHT22;9178;51.120;6.192;2023-02-15T00:51:30;2.20;99.90
18103;DHT22;9178;51.120;6.192;2023-02-15T00:53:57;2.20;99.90
18103;DHT22;9178;51.120;6.192;2023-02-15T00:56:24;2.20;99.90
18103;DHT22;9178;51.120;6.192;2023-02-15T00:58:55;2.10;99.90
18103;DHT22;9178;51.120;6.192;2023-02-15T01:01:22;2.10;99.90
18103;DHT22;9178;51.120;6.192;2023-02-15T01:03:51;2.20;99.90
18103;DHT22;9178;51.120;6.192;2023-02-15T01:06:18;2.10;99.90
18103;DHT22;9178;51.120;6.192;2023-02-15T01:08:45;2.10;99.90
18103;DHT22;9178;51.120;6.192;2023-02-15T01:11:14;2.00;99.90
18103;DHT22;9178;51.120;6.192;2023-02-15T01:13:47;2.00;99.90
18103;DHT22;9178;51.120;6.192;2023-02-15T01:16:16;2.00;99.90
18103;DHT22;9178;51.120;6.192;2023-02-15T01:18:44;2.00;99.90
18103;DHT22;9178;51.120;6.192;2023-02-15T01:21:13;1.90;99.90
18103;DHT22;9178;51.120;6.192;2023-02-15T01:23:40;1.90;99.90
18103;DHT22;9178;51.120;6.192;2023-02-15T01:26:07;1.90;99.90
18103;DHT22;9178;51.120;6.192;2023-02-15T01:28:35;1.90;99.90
18103;DHT22;9178;51.120;6.192;2023-02-15T01:31:05;1.90;99.90
18103;DHT22;9178;51.120;6.192;2023-02-15T01:33:35;1.90;99.90
18103;DHT22;9178;51.120;6.192;2023-02-15T01:36:02;1.90;99.90
18103;DHT22;9178;51.120;6.192;2023-02-15T01:38:29;1.90;99.90
18103;DHT22;9178;51.120;6.192;2023-02-15T01:40:56;1.90;99.90
18103;DHT22;9178;51.120;6.192;2023-02-15T01:43:47;1.90;99.90
18103;DHT22;9178;51.120;6.192;2023-02-15T01:46:16;1.80;99.90
18103;DHT22;9178;51.120;6.192;2023-02-15T01:48:47;1.80;99.90
18103;DHT22;9178;51.120;6.192;2023-02-15T01:51:18;1.80;99.90
18103;DHT22;9178;51.120;6.192;2023-02-15T01:53:48;1.80;99.90
18103;DHT22;9178;51.120;6.192;2023-02-15T01:56:20;1.80;99.90
18103;DHT22;9178;51.120;6.192;2023-02-15T01:58:49;1.70;99.90
18103;DHT22;9178;51.120;6.192;2023-02-15T02:01:18;1.70;99.90
18103;DHT22;9178;51.120;6.192;2023-02-15T02:03:53;1.70;99.90
18103;DHT22;9178;51.120;6.192;2023-02-15T02:06:22;1.70;99.90
18103;DHT22;9178;51.120;6.192;2023-02-15T02:08:51;1.70;99.90
18103;DHT22;9178;51.120;6.192;2023-02-15T02:11:19;1.70;99.90
18103;DHT22;9178;51.120;6.192;2023-02-15T02:13:46;1.60;99.90
18103;DHT22;9178;51.120;6.192;2023-02-15T02:16:16;1.60;99.90
18103;DHT22;9178;51.120;6.192;2023-02-15T02:19:10;1.50;99.90
18103;DHT22;9178;51.120;6.192;2023-02-15T02:22:07;1.50;99.90
18103;DHT22;9178;51.120;6.192;2023-02-15T02:25:03;1.50;99.90
18103;DHT22;9178;51.120;6.192;2023-02-15T02:27:37;1.40;99.90
18103;DHT22;9178;51.120;6.192;2023-02-15T02:30:32;1.40;99.90
18103;DHT22;9178;51.120;6.192;2023-02-15T02:33:21;1.40;99.90
18103;DHT22;9178;51.120;6.192;2023-02-15T02:35:58;1.40;99.90
18103;DHT22;9178;51.120;6.192;2023-02-15T02:38:34;1.50;99.90
18103;DHT22;9178;51.120;6.192;2023-02-15T02:41:13;1.50;99.90
18103;DHT22;9178;51.120;6.192;2023-02-15T02:43:48;1.50;99.90
18103;DHT22;9178;51.120;6.192;2023-02-15T02:46:22;1.40;99.90
18103;DHT22;9178;51.120;6.192;2023-02-15T02:48:52;1.40;99.90
18103;DHT22;9178;51.120;6.192;2023-02-15T02:51:20;1.40;99.90
18103;DHT22;9178;51.120;6.192;2023-02-15T02:53:50;1.40;99.90
18103;DHT22;9178;51.120;6.192;2023-02-15T02:56:22;1.40;99.90
18103;DHT22;9178;51.120;6.192;2023-02-15T02:58:57;1.30;99.90
18103;DHT22;9178;51.120;6.192;2023-02-15T03:01:28;1.30;99.90
18103;DHT22;9178;51.120;6.192;2023-02-15T03:03:59;1.20;99.90
18103;DHT22;9178;51.120;6.192;2023-02-15T03:06:32;1.20;99.90
18103;DHT22;9178;51.120;6.192;2023-02-15T03:09:06;1.20;99.90
18103;DHT22;9178;51.120;6.192;2023-02-15T03:11:34;1.20;99.90
18103;DHT22;9178;51.120;6.192;2023-02-15T03:14:01;1.10;99.90
18103;DHT22;9178;51.120;6.192;2023-02-15T03:16:28;1.10;99.90
18103;DHT22;9178;51.120;6.192;2023-02-15T03:19:01;1.10;99.90
18103;DHT22;9178;51.120;6.192;2023-02-15T03:21:35;1.20;99.90
18103;DHT22;9178;51.120;6.192;2023-02-15T03:24:07;1.10;99.90
18103;DHT22;9178;51.120;6.192;2023-02-15T03:26:36;1.10;99.90
18103;DHT22;9178;51.120;6.192;2023-02-15T03:29:06;1.20;99.90
18103;DHT22;9178;51.120;6.192;2023-02-15T03:31:37;1.10;99.90
18103;DHT22;9178;51.120;6.192;2023-02-15T03:34:10;1.10;99.90
18103;DHT22;9178;51.120;6.192;2023-02-15T03:36:43;1.10;99.90
18103;DHT22;9178;51.120;6.192;2023-02-15T03:39:18;1.10;99.90
18103;DHT22;9178;51.120;6.192;2023-02-15T03:41:51;1.10;99.90
18103;DHT22;9178;51.120;6.192;2023-02-15T03:44:25;1.10;99.90
18103;DHT22;9178;51.120;6.192;2023-02-15T03:46:58;1.10;99.90
18103;DHT22;9178;51.120;6.192;2023-02-15T03:49:31;1.00;99.90
18103;DHT22;9178;51.120;6.192;2023-02-15T03:52:03;1.00;99.90
18103;DHT22;9178;51.120;6.192;2023-02-15T03:54:33;1.00;99.90
18103;DHT22;9178;51.120;6.192;2023-02-15T03:57:14;1.00;99.90
18103;DHT22;9178;51.120;6.192;2023-02-15T04:00:00;0.90;99.90
18103;DHT22;9178;51.120;6.192;2023-02-15T04:03:11;1.00;99.90
18103;DHT22;9178;51.120;6.192;2023-02-15T04:05:41;0.90;99.90
18103;DHT22;9178;51.120;6.192;2023-02-15T04:08:10;0.90;99.90
18103;DHT22;9178;51.120;6.192;2023-02-15T04:10:42;0.90;99.90
18103;DHT22;9178;51.120;6.192;2023-02-15T04:13:22;0.90;99.90
18103;DHT22;9178;51.120;6.192;2023-02-15T04:15:50;0.90;99.90
18103;DHT22;9178;51.120;6.192;2023-02-15T04:18:32;0.90;99.90
18103;DHT22;9178;51.120;6.192;2023-02-15T04:21:20;0.90;99.90
18103;DHT22;9178;51.120;6.192;2023-02-15T04:24:11;1.00;99.90
18103;DHT22;9178;51.120;6.192;2023-02-15T04:26:55;0.90;99.90
18103;DHT22;9178;51.120;6.192;2023-02-15T04:29:25;1.00;99.90
18103;DHT22;9178;51.120;6.192;2023-02-15T04:31:53;1.00;99.90
18103;DHT22;9178;51.120;6.192;2023-02-15T04:34:21;1.00;99.90
18103;DHT22;9178;51.120;6.192;2023-02-15T04:36:50;1.00;99.90
18103;DHT22;9178;51.120;6.192;2023-02-15T04:39:18;1.00;99.90
18103;DHT22;9178;51.120;6.192;2023-02-15T04:41:45;1.00;99.90
18103;DHT22;9178;51.120;6.192;2023-02-15T04:44:13;0.90;99.90
18103;DHT22;9178;51.120;6.192;2023-02-15T04:46:40;0.90;99.90
18103;DHT22;9178;51.120;6.192;2023-02-15T04:49:08;0.80;99.90
18103;DHT22;9178;51.120;6.192;2023-02-15T04:51:35;0.80;99.90
18103;DHT22;9178;51.120;6.192;2023-02-15T04:54:03;0.70;99.90
18103;DHT22;9178;51.120;6.192;2023-02-15T04:56:30;0.70;99.90
18103;DHT22;9178;51.120;6.192;2023-02-15T04:58:58;0.70;99.90
18103;DHT22;9178;51.120;6.192;2023-02-15T05:01:25;0.60;99.90
18103;DHT22;9178;51.120;6.192;2023-02-15T05:03:52;0.70;99.90
18103;DHT22;9178;51.120;6.192;2023-02-15T05:06:19;0.60;99.90
18103;DHT22;9178;51.120;6.192;2023-02-15T05:08:46;0.60;99.90
18103;DHT22;9178;51.120;6.192;2023-02-15T05:11:14;0.60;99.90
18103;DHT22;9178;51.120;6.192;2023-02-15T05:13:41;0.70;99.90
18103;DHT22;9178;51.120;6.192;2023-02-15T05:16:08;0.60;99.90
18103;DHT22;9178;51.120;6.192;2023-02-15T05:18:35;0.60;99.90
18103;DHT22;9178;51.120;6.192;2023-02-15T05:21:02;0.60;99.90
18103;DHT22;9178;51.120;6.192;2023-02-15T05:23:29;0.60;99.90
18103;DHT22;9178;51.120;6.192;2023-02-15T05:25:56;0.60;99.90
18103;DHT22;9178;51.120;6.192;2023-02-15T05:28:42;0.70;99.90
18103;DHT22;9178;51.120;6.192;2023-02-15T05:31:11;0.60;99.90
18103;DHT22;9178;51.120;6.192;2023-02-15T05:33:38;0.60;99.90
18103;DHT22;9178;51.120;6.192;2023-02-15T05:36:06;0.70;99.90
18103;DHT22;9178;51.120;6.192;2023-02-15T05:38:33;0.70;99.90
18103;DHT22;9178;51.120;6.192;2023-02-15T05:41:02;0.60;99.90
18103;DHT22;9178;51.120;6.192;2023-02-15T05:43:30;0.60;99.90
18103;DHT22;9178;51.120;6.192;2023-02-15T05:45:59;0.60;99.90
18103;DHT22;9178;51.120;6.192;2023-02-15T05:48:26;0.60;99.90
18103;DHT22;9178;51.120;6.192;2023-02-15T05:51:00;0.60;99.90
18103;DHT22;9178;51.120;6.192;2023-02-15T05:53:29;0.60;99.90
18103;DHT22;9178;51.120;6.192;2023-02-15T05:55:56;0.60;99.90
18103;DHT22;9178;51.120;6.192;2023-02-15T05:58:25;0.60;99.90
18103;DHT22;9178;51.120;6.192;2023-02-15T06:00:52;0.60;99.90
18103;DHT22;9178;51.120;6.192;2023-02-15T06:03:21;0.60;99.90
18103;DHT22;9178;51.120;6.192;2023-02-15T06:05:48;0.60;99.90
18103;DHT22;9178;51.120;6.192;2023-02-15T06:08:15;0.60;99.90
18103;DHT22;9178;51.120;6.192;2023-02-15T06:10:42;0.60;99.90
18103;DHT22;9178;51.120;6.192;2023-02-15T06:13:08;0.60;99.90
18103;DHT22;9178;51.120;6.192;2023-02-15T06:15:35;0.60;99.90
18103;DHT22;9178;51.120;6.192;2023-02-15T06:18:03;0.60;99.90
18103;DHT22;9178;51.120;6.192;2023-02-15T06:20:31;0.60;99.90
18103;DHT22;9178;51.120;6.192;2023-02-15T06:22:58;0.70;99.90
18103;DHT22;9178;51.120;6.192;2023-02-15T06:25:25;0.60;99.90
18103;DHT22;9178;51.120;6.192;2023-02-15T06:27:52;0.60;99.90
18103;DHT22;9178;51.120;6.192;2023-02-15T06:30:19;0.60;99.90
18103;DHT22;9178;51.120;6.192;2023-02-15T06:32:46;0.60;99.90
18103;DHT22;9178;51.120;6.192;2023-02-15T06:35:13;0.70;99.90
18103;DHT22;9178;51.120;6.192;2023-02-15T06:37:42;0.60;99.90
18103;DHT22;9178;51.120;6.192;2023-02-15T06:40:11;0.60;99.90
18103;DHT22;9178;51.120;6.192;2023-02-15T06:42:38;0.60;99.90
18103;DHT22;9178;51.120;6.192;2023-02-15T06:45:06;0.60;99.90
18103;DHT22;9178;51.120;6.192;2023-02-15T06:47:33;0.60;99.90
18103;DHT22;9178;51.120;6.192;2023-02-15T06:50:00;0.60;99.90
18103;DHT22;9178;51.120;6.192;2023-02-15T06:52:26;0.60;99.90
18103;DHT22;9178;51.120;6.192;2023-02-15T06:54:55;0.70;99.90
18103;DHT22;9178;51.120;6.192;2023-02-15T06:57:22;0.70;99.90
18103;DHT22;9178;51.120;6.192;2023-02-15T06:59:49;0.70;99.90
18103;DHT22;9178;51.120;6.192;2023-02-15T07:02:15;0.70;99.90
18103;DHT22;9178;51.120;6.192;2023-02-15T07:04:42;0.70;99.90
18103;DHT22;9178;51.120;6.192;2023-02-15T07:07:10;0.70;99.90
18103;DHT22;9178;51.120;6.192;2023-02-15T07:09:38;0.70;99.90
18103;DHT22;9178;51.120;6.192;2023-02-15T07:12:07;0.70;99.90
18103;DHT22;9178;51.120;6.192;2023-02-15T07:14:51;0.80;99.90
18103;DHT22;9178;51.120;6.192;2023-02-15T07:17:18;0.70;99.90
18103;DHT22;9178;51.120;6.192;2023-02-15T07:19:45;0.80;99.90
18103;DHT22;9178;51.120;6.192;2023-02-15T07:22:12;0.80;99.90
18103;DHT22;9178;51.120;6.192;2023-02-15T07:24:39;0.80;99.90
18103;DHT22;9178;51.120;6.192;2023-02-15T07:27:08;0.80;99.90
18103;DHT22;9178;51.120;6.192;2023-02-15T07:29:35;1.00;99.90
18103;DHT22;9178;51.120;6.192;2023-02-15T07:32:02;1.30;99.90
18103;DHT22;9178;51.120;6.192;2023-02-15T07:34:28;1.70;99.90
18103;DHT22;9178;51.120;6.192;2023-02-15T07:36:56;2.20;99.90
18103;DHT22;9178;51.120;6.192;2023-02-15T07:39:23;2.50;99.90
18103;DHT22;9178;51.120;6.192;2023-02-15T07:41:50;2.90;99.90
18103;DHT22;9178;51.120;6.192;2023-02-15T07:44:18;3.20;99.90
18103;DHT22;9178;51.120;6.192;2023-02-15T07:46:45;3.50;99.90
18103;DHT22;9178;51.120;6.192;2023-02-15T07:49:12;3.70;99.90
18103;DHT22;9178;51.120;6.192;2023-02-15T07:51:40;3.80;99.90
18103;DHT22;9178;51.120;6.192;2023-02-15T07:54:07;3.90;99.90
18103;DHT22;9178;51.120;6.192;2023-02-15T07:56:34;4.00;99.90
18103;DHT22;9178;51.120;6.192;2023-02-15T07:59:01;4.20;99.90
18103;DHT22;9178;51.120;6.192;2023-02-15T08:01:32;4.30;99.90
18103;DHT22;9178;51.120;6.192;2023-02-15T08:04:00;4.40;99.90
18103;DHT22;9178;51.120;6.192;2023-02-15T08:06:29;4.40;99.90
18103;DHT22;9178;51.120;6.192;2023-02-15T08:08:57;4.10;99.90
18103;DHT22;9178;51.120;6.192;2023-02-15T08:11:29;3.90;99.90
18103;DHT22;9178;51.120;6.192;2023-02-15T08:14:00;3.80;99.90
18103;DHT22;9178;51.120;6.192;2023-02-15T08:16:31;3.90;99.90
18103;DHT22;9178;51.120;6.192;2023-02-15T08:19:01;4.20;99.90
18103;DHT22;9178;51.120;6.192;2023-02-15T08:21:29;4.50;99.90
18103;DHT22;9178;51.120;6.192;2023-02-15T08:23:57;4.70;99.90
18103;DHT22;9178;51.120;6.192;2023-02-15T08:26:24;4.90;99.90
18103;DHT22;9178;51.120;6.192;2023-02-15T08:28:53;5.00;99.90
18103;DHT22;9178;51.120;6.192;2023-02-15T08:31:21;5.40;99.90
18103;DHT22;9178;51.120;6.192;2023-02-15T08:33:52;5.60;99.90
18103;DHT22;9178;51.120;6.192;2023-02-15T08:36:21;5.90;99.90
18103;DHT22;9178;51.120;6.192;2023-02-15T08:38:48;6.00;99.90
18103;DHT22;9178;51.120;6.192;2023-02-15T08:41:17;6.10;99.90
18103;DHT22;9178;51.120;6.192;2023-02-15T08:43:46;6.30;99.90
18103;DHT22;9178;51.120;6.192;2023-02-15T08:46:15;6.70;99.90
18103;DHT22;9178;51.120;6.192;2023-02-15T08:48:43;7.10;99.90
18103;DHT22;9178;51.120;6.192;2023-02-15T08:51:13;7.50;99.90
18103;DHT22;9178;51.120;6.192;2023-02-15T08:53:42;7.50;99.90
18103;DHT22;9178;51.120;6.192;2023-02-15T08:56:09;7.50;99.90
18103;DHT22;9178;51.120;6.192;2023-02-15T08:58:37;7.40;99.90
18103;DHT22;9178;51.120;6.192;2023-02-15T09:01:11;7.40;99.90
18103;DHT22;9178;51.120;6.192;2023-02-15T09:03:39;7.00;99.90
18103;DHT22;9178;51.120;6.192;2023-02-15T09:06:06;7.00;99.90
18103;DHT22;9178;51.120;6.192;2023-02-15T09:08:35;6.80;99.90
18103;DHT22;9178;51.120;6.192;2023-02-15T09:11:06;6.90;99.90
18103;DHT22;9178;51.120;6.192;2023-02-15T09:13:33;6.90;99.90
18103;DHT22;9178;51.120;6.192;2023-02-15T09:16:02;6.60;99.90
18103;DHT22;9178;51.120;6.192;2023-02-15T09:18:30;6.40;99.90
18103;DHT22;9178;51.120;6.192;2023-02-15T09:21:02;6.30;99.90
18103;DHT22;9178;51.120;6.192;2023-02-15T09:23:29;6.40;99.90
18103;DHT22;9178;51.120;6.192;2023-02-15T09:26:02;6.60;99.90
18103;DHT22;9178;51.120;6.192;2023-02-15T09:28:29;6.50;99.90
18103;DHT22;9178;51.120;6.192;2023-02-15T09:31:05;6.60;99.90
18103;DHT22;9178;51.120;6.192;2023-02-15T09:33:33;6.70;99.90
18103;DHT22;9178;51.120;6.192;2023-02-15T09:36:00;6.70;99.90
18103;DHT22;9178;51.120;6.192;2023-02-15T09:38:27;7.00;99.90
18103;DHT22;9178;51.120;6.192;2023-02-15T09:41:07;7.40;99.90
18103;DHT22;9178;51.120;6.192;2023-02-15T09:43:39;7.50;99.90
18103;DHT22;9178;51.120;6.192;2023-02-15T09:46:23;7.80;99.90
18103;DHT22;9178;51.120;6.192;2023-02-15T09:48:54;8.40;99.90
18103;DHT22;9178;51.120;6.192;2023-02-15T09:54:37;8.90;99.90
18103;DHT22;9178;51.120;6.192;2023-02-15T09:57:12;9.10;99.90
18103;DHT22;9178;51.120;6.192;2023-02-15T09:59:45;9.30;99.90
18103;DHT22;9178;51.120;6.192;2023-02-15T10:02:26;9.20;99.90
18103;DHT22;9178;51.120;6.192;2023-02-15T10:05:04;9.00;99.90
18103;DHT22;9178;51.120;6.192;2023-02-15T10:07:44;8.90;99.90
18103;DHT22;9178;51.120;6.192;2023-02-15T10:10:23;9.00;99.90
18103;DHT22;9178;51.120;6.192;2023-02-15T10:13:12;8.90;99.90
18103;DHT22;9178;51.120;6.192;2023-02-15T10:15:53;9.00;99.90
18103;DHT22;9178;51.120;6.192;2023-02-15T10:18:42;9.00;99.90
18103;DHT22;9178;51.120;6.192;2023-02-15T10:21:17;8.90;99.90
18103;DHT22;9178;51.120;6.192;2023-02-15T10:23:59;9.10;99.90
18103;DHT22;9178;51.120;6.192;2023-02-15T10:26:35;9.50;99.90
18103;DHT22;9178;51.120;6.192;2023-02-15T10:29:09;10.00;99.90
18103;DHT22;9178;51.120;6.192;2023-02-15T10:31:48;10.30;99.90
18103;DHT22;9178;51.120;6.192;2023-02-15T10:34:17;10.50;99.90
18103;DHT22;9178;51.120;6.192;2023-02-15T10:37:11;10.80;99.90
18103;DHT22;9178;51.120;6.192;2023-02-15T10:39:48;10.70;99.90
18103;DHT22;9178;51.120;6.192;2023-02-15T10:42:26;10.60;99.90
18103;DHT22;9178;51.120;6.192;2023-02-15T10:45:07;10.50;99.90
18103;DHT22;9178;51.120;6.192;2023-02-15T10:50:46;10.60;99.90
18103;DHT22;9178;51.120;6.192;2023-02-15T10:53:29;10.90;99.90
18103;DHT22;9178;51.120;6.192;2023-02-15T10:56:09;11.60;99.90
18103;DHT22;9178;51.120;6.192;2023-02-15T10:58:47;12.30;99.90
18103;DHT22;9178;51.120;6.192;2023-02-15T11:01:22;12.90;99.90
18103;DHT22;9178;51.120;6.192;2023-02-15T11:06:49;13.80;99.90
18103;DHT22;9178;51.120;6.192;2023-02-15T11:09:19;13.80;99.90
18103;DHT22;9178;51.120;6.192;2023-02-15T11:11:50;14.10;99.90
18103;DHT22;9178;51.120;6.192;2023-02-15T11:14:23;14.20;99.90
18103;DHT22;9178;51.120;6.192;2023-02-15T11:16:59;14.20;99.90
18103;DHT22;9178;51.120;6.192;2023-02-15T11:19:32;14.70;99.90
18103;DHT22;9178;51.120;6.192;2023-02-15T11:22:03;15.50;99.90
18103;DHT22;9178;51.120;6.192;2023-02-15T11:24:33;16.10;99.90
18103;DHT22;9178;51.120;6.192;2023-02-15T11:27:05;16.50;99.90
18103;DHT22;9178;51.120;6.192;2023-02-15T11:29:37;16.40;99.90
18103;DHT22;9178;51.120;6.192;2023-02-15T11:32:17;16.10;99.90
18103;DHT22;9178;51.120;6.192;2023-02-15T11:34:50;15.60;99.90
18103;DHT22;9178;51.120;6.192;2023-02-15T11:37:24;15.00;99.90
18103;DHT22;9178;51.120;6.192;2023-02-15T11:39:53;14.80;99.90
18103;DHT22;9178;51.120;6.192;2023-02-15T11:42:23;14.90;99.90
18103;DHT22;9178;51.120;6.192;2023-02-15T11:44:58;14.60;99.90
18103;DHT22;9178;51.120;6.192;2023-02-15T11:47:27;14.20;99.90
18103;DHT22;9178;51.120;6.192;2023-02-15T11:49:56;14.10;99.90
18103;DHT22;9178;51.120;6.192;2023-02-15T11:52:23;14.40;99.90
18103;DHT22;9178;51.120;6.192;2023-02-15T11:54:51;15.00;99.90
18103;DHT22;9178;51.120;6.192;2023-02-15T11:57:23;15.40;99.90
18103;DHT22;9178;51.120;6.192;2023-02-15T11:59:56;15.80;99.90
18103;DHT22;9178;51.120;6.192;2023-02-15T12:02:25;16.40;99.90
18103;DHT22;9178;51.120;6.192;2023-02-15T12:05:00;17.00;99.90
18103;DHT22;9178;51.120;6.192;2023-02-15T12:07:31;18.00;99.90
18103;DHT22;9178;51.120;6.192;2023-02-15T12:10:04;18.80;99.90
18103;DHT22;9178;51.120;6.192;2023-02-15T12:12:37;19.40;99.90
18103;DHT22;9178;51.120;6.192;2023-02-15T12:15:06;19.90;99.90
18103;DHT22;9178;51.120;6.192;2023-02-15T12:17:38;20.00;99.90
18103;DHT22;9178;51.120;6.192;2023-02-15T12:20:21;20.10;99.90
18103;DHT22;9178;51.120;6.192;2023-02-15T12:22:53;19.40;99.90
18103;DHT22;9178;51.120;6.192;2023-02-15T12:25:22;19.10;99.90
18103;DHT22;9178;51.120;6.192;2023-02-15T12:27:50;19.60;99.90
18103;DHT22;9178;51.120;6.192;2023-02-15T12:30:21;20.10;99.90
18103;DHT22;9178;51.120;6.192;2023-02-15T12:32:53;20.30;99.90
18103;DHT22;9178;51.120;6.192;2023-02-15T12:35:27;20.00;99.90
18103;DHT22;9178;51.120;6.192;2023-02-15T12:38:19;19.40;99.90
18103;DHT22;9178;51.120;6.192;2023-02-15T12:40:57;18.60;99.90
18103;DHT22;9178;51.120;6.192;2023-02-15T12:43:31;18.10;99.90
18103;DHT22;9178;51.120;6.192;2023-02-15T12:46:19;17.70;99.90
18103;DHT22;9178;51.120;6.192;2023-02-15T12:48:46;17.40;99.90
18103;DHT22;9178;51.120;6.192;2023-02-15T12:51:15;17.70;99.90
18103;DHT22;9178;51.120;6.192;2023-02-15T12:53:42;18.20;99.90
18103;DHT22;9178;51.120;6.192;2023-02-15T12:56:10;18.40;99.90
18103;DHT22;9178;51.120;6.192;2023-02-15T12:58:38;18.10;99.90
18103;DHT22;9178;51.120;6.192;2023-02-15T13:01:14;18.20;99.90
18103;DHT22;9178;51.120;6.192;2023-02-15T13:03:55;18.10;99.90
18103;DHT22;9178;51.120;6.192;2023-02-15T13:06:25;18.10;99.90
18103;DHT22;9178;51.120;6.192;2023-02-15T13:08:54;18.20;99.90
18103;DHT22;9178;51.120;6.192;2023-02-15T13:11:25;18.60;99.90
18103;DHT22;9178;51.120;6.192;2023-02-15T13:13:55;18.70;99.90
18103;DHT22;9178;51.120;6.192;2023-02-15T13:16:29;18.60;99.90
18103;DHT22;9178;51.120;6.192;2023-02-15T13:18:57;18.40;99.90
18103;DHT22;9178;51.120;6.192;2023-02-15T13:21:31;18.30;99.90
18103;DHT22;9178;51.120;6.192;2023-02-15T13:24:01;18.50;99.90
18103;DHT22;9178;51.120;6.192;2023-02-15T13:26:31;18.70;99.20
18103;DHT22;9178;51.120;6.192;2023-02-15T13:29:04;18.60;99.90
18103;DHT22;9178;51.120;6.192;2023-02-15T13:31:34;18.40;99.90
18103;DHT22;9178;51.120;6.192;2023-02-15T13:34:07;18.00;99.90
18103;DHT22;9178;51.120;6.192;2023-02-15T13:36:44;17.90;99.90
18103;DHT22;9178;51.120;6.192;2023-02-15T13:39:20;18.10;99.90
18103;DHT22;9178;51.120;6.192;2023-02-15T13:41:54;18.80;99.90
18103;DHT22;9178;51.120;6.192;2023-02-15T13:44:49;19.50;99.90
18103;DHT22;9178;51.120;6.192;2023-02-15T13:47:22;19.60;99.90
18103;DHT22;9178;51.120;6.192;2023-02-15T13:50:14;19.90;99.80
18103;DHT22;9178;51.120;6.192;2023-02-15T13:52:49;20.20;99.00
18103;DHT22;9178;51.120;6.192;2023-02-15T13:55:31;20.60;98.90
18103;DHT22;9178;51.120;6.192;2023-02-15T13:58:32;20.80;98.00
18103;DHT22;9178;51.120;6.192;2023-02-15T14:01:09;20.80;97.40
18103;DHT22;9178;51.120;6.192;2023-02-15T14:06:48;20.30;97.30
18103;DHT22;9178;51.120;6.192;2023-02-15T14:09:36;19.90;98.10
18103;DHT22;9178;51.120;6.192;2023-02-15T14:12:22;19.50;98.00
18103;DHT22;9178;51.120;6.192;2023-02-15T14:18:07;18.40;98.60
18103;DHT22;9178;51.120;6.192;2023-02-15T14:20:45;18.10;99.90
18103;DHT22;9178;51.120;6.192;2023-02-15T14:23:28;17.70;99.10
18103;DHT22;9178;51.120;6.192;2023-02-15T14:26:01;17.20;99.90
18103;DHT22;9178;51.120;6.192;2023-02-15T14:28:37;17.00;99.90
18103;DHT22;9178;51.120;6.192;2023-02-15T14:31:08;17.00;99.90
18103;DHT22;9178;51.120;6.192;2023-02-15T14:33:38;16.90;99.90
18103;DHT22;9178;51.120;6.192;2023-02-15T14:36:07;16.70;99.90
18103;DHT22;9178;51.120;6.192;2023-02-15T14:38:56;16.40;99.90
18103;DHT22;9178;51.120;6.192;2023-02-15T14:41:35;16.10;99.90
18103;DHT22;9178;51.120;6.192;2023-02-15T14:44:08;15.80;99.90
18103;DHT22;9178;51.120;6.192;2023-02-15T14:46:42;15.50;99.90
18103;DHT22;9178;51.120;6.192;2023-02-15T14:49:14;15.50;99.90
18103;DHT22;9178;51.120;6.192;2023-02-15T14:52:10;15.50;99.90
18103;DHT22;9178;51.120;6.192;2023-02-15T14:54:57;15.40;99.90
18103;DHT22;9178;51.120;6.192;2023-02-15T14:57:48;15.40;99.90
18103;DHT22;9178;51.120;6.192;2023-02-15T15:00:36;15.20;99.90
18103;DHT22;9178;51.120;6.192;2023-02-15T15:03:11;15.00;99.90
18103;DHT22;9178;51.120;6.192;2023-02-15T15:05:49;14.80;99.90
18103;DHT22;9178;51.120;6.192;2023-02-15T15:08:25;14.60;99.90
18103;DHT22;9178;51.120;6.192;2023-02-15T15:10:52;14.40;99.90
18103;DHT22;9178;51.120;6.192;2023-02-15T15:13:38;14.30;99.90
18103;DHT22;9178;51.120;6.192;2023-02-15T15:16:48;14.20;99.90
18103;DHT22;9178;51.120;6.192;2023-02-15T15:22:33;14.00;99.90
18103;DHT22;9178;51.120;6.192;2023-02-15T15:25:01;13.90;99.90
18103;DHT22;9178;51.120;6.192;2023-02-15T15:27:49;13.80;99.90
18103;DHT22;9178;51.120;6.192;2023-02-15T15:42:49;13.40;99.90
18103;DHT22;9178;51.120;6.192;2023-02-15T15:45:34;13.30;99.90
18103;DHT22;9178;51.120;6.192;2023-02-15T15:48:31;13.20;99.90
18103;DHT22;9178;51.120;6.192;2023-02-15T15:51:02;13.10;99.90
18103;DHT22;9178;51.120;6.192;2023-02-15T15:53:34;13.10;99.90
18103;DHT22;9178;51.120;6.192;2023-02-15T15:56:10;12.90;99.90
18103;DHT22;9178;51.120;6.192;2023-02-15T15:58:43;12.80;99.90
18103;DHT22;9178;51.120;6.192;2023-02-15T16:01:11;12.70;99.90
18103;DHT22;9178;51.120;6.192;2023-02-15T16:03:48;12.60;99.90
18103;DHT22;9178;51.120;6.192;2023-02-15T16:06:27;12.50;99.90
18103;DHT22;9178;51.120;6.192;2023-02-15T16:08:55;12.40;99.90
18103;DHT22;9178;51.120;6.192;2023-02-15T16:11:24;12.30;99.90
18103;DHT22;9178;51.120;6.192;2023-02-15T16:13:52;12.10;99.90
18103;DHT22;9178;51.120;6.192;2023-02-15T16:16:21;12.00;99.90
18103;DHT22;9178;51.120;6.192;2023-02-15T16:18:49;11.80;99.90
18103;DHT22;9178;51.120;6.192;2023-02-15T16:21:19;11.70;99.90
18103;DHT22;9178;51.120;6.192;2023-02-15T16:24:02;11.60;99.90
18103;DHT22;9178;51.120;6.192;2023-02-15T16:26:50;11.50;99.90
18103;DHT22;9178;51.120;6.192;2023-02-15T16:29:27;11.50;99.90
18103;DHT22;9178;51.120;6.192;2023-02-15T16:32:02;11.40;99.90
18103;DHT22;9178;51.120;6.192;2023-02-15T16:34:29;11.20;99.90
18103;DHT22;9178;51.120;6.192;2023-02-15T16:37:17;11.10;99.90
18103;DHT22;9178;51.120;6.192;2023-02-15T16:39:46;10.90;99.90
18103;DHT22;9178;51.120;6.192;2023-02-15T16:42:15;10.90;99.90
18103;DHT22;9178;51.120;6.192;2023-02-15T16:44:43;10.80;99.90
18103;DHT22;9178;51.120;6.192;2023-02-15T16:47:16;10.70;99.90
18103;DHT22;9178;51.120;6.192;2023-02-15T16:49:46;10.60;99.90
18103;DHT22;9178;51.120;6.192;2023-02-15T16:52:19;10.50;99.90
18103;DHT22;9178;51.120;6.192;2023-02-15T16:54:50;10.40;99.90
18103;DHT22;9178;51.120;6.192;2023-02-15T16:57:20;10.30;99.90
18103;DHT22;9178;51.120;6.192;2023-02-15T16:59:49;10.10;99.90